sensor_id;sensor_type;location;lat;lon;timestamp;pressure;altitude;pressure_sealevel;temperature;humidity
5380;BME280;2713;42.680;23.310;2023-07-24T00:00:44;95276.41;;;26.03;54.52
5380;BME280;2713;42.680;23.310;2023-07-24T00:03:11;95269.97;;;26.14;53.85
5380;BME280;2713;42.680;23.310;2023-07-24T00:05:39;95279.06;;;26.18;54.23
5380;BME280;2713;42.680;23.310;2023-07-24T00:08:05;95282.25;;;26.15;54.27
5380;BME280;2713;42.680;23.310;2023-07-24T00:10:33;95275.84;;;26.21;54.84
5380;BME280;2713;42.680;23.310;2023-07-24T00:12:59;95273.44;;;26.30;54.07
5380;BME280;2713;42.680;23.310;2023-07-24T00:15:26;95274.53;;;26.19;55.26
5380;BME280;2713;42.680;23.310;2023-07-24T00:17:53;95276.41;;;26.18;55.27
5380;BME280;2713;42.680;23.310;2023-07-24T00:20:20;95273.47;;;26.05;55.45
5380;BME280;2713;42.680;23.310;2023-07-24T00:22:48;95274.78;;;26.07;55.43
5380;BME280;2713;42.680;23.310;2023-07-24T00:25:15;95278.00;;;26.09;55.61
5380;BME280;2713;42.680;23.310;2023-07-24T00:27:42;95274.28;;;26.05;55.82
5380;BME280;2713;42.680;23.310;2023-07-24T00:30:09;95284.94;;;26.00;55.88
5380;BME280;2713;42.680;23.310;2023-07-24T00:32:36;95279.38;;;25.87;56.45
5380;BME280;2713;42.680;23.310;2023-07-24T00:35:04;95264.25;;;25.57;57.07
5380;BME280;2713;42.680;23.310;2023-07-24T00:37:31;95267.69;;;25.62;56.96
5380;BME280;2713;42.680;23.310;2023-07-24T00:39:59;95271.97;;;25.68;56.74
5380;BME280;2713;42.680;23.310;2023-07-24T00:42:26;95266.63;;;25.53;57.12
5380;BME280;2713;42.680;23.310;2023-07-24T00:44:52;95266.09;;;25.61;56.81
5380;BME280;2713;42.680;23.310;2023-07-24T00:47:19;95266.09;;;25.61;56.22
5380;BME280;2713;42.680;23.310;2023-07-24T00:49:46;95277.00;;;25.60;56.06
5380;BME280;2713;42.680;23.310;2023-07-24T00:52:14;95271.91;;;25.28;56.70
5380;BME280;2713;42.680;23.310;2023-07-24T00:54:43;95273.00;;;25.27;57.01
5380;BME280;2713;42.680;23.310;2023-07-24T00:57:14;95271.41;;;25.36;56.26
5380;BME280;2713;42.680;23.310;2023-07-24T00:59:42;95266.34;;;25.50;56.01
5380;BME280;2713;42.680;23.310;2023-07-24T01:02:09;95269.00;;;25.55;56.38
5380;BME280;2713;42.680;23.310;2023-07-24T01:04:38;95260.47;;;25.43;56.55
5380;BME280;2713;42.680;23.310;2023-07-24T01:07:05;95251.97;;;25.36;55.93
5380;BME280;2713;42.680;23.310;2023-07-24T01:09:33;95258.88;;;25.47;55.67
5380;BME280;2713;42.680;23.310;2023-07-24T01:12:04;95253.56;;;25.47;55.65
5380;BME280;2713;42.680;23.310;2023-07-24T01:14:38;95260.19;;;25.14;55.92
5380;BME280;2713;42.680;23.310;2023-07-24T01:17:09;95264.47;;;25.05;56.47
5380;BME280;2713;42.680;23.310;2023-07-24T01:19:37;95263.41;;;25.06;56.91
5380;BME280;2713;42.680;23.310;2023-07-24T01:22:12;95256.47;;;24.95;56.75
5380;BME280;2713;42.680;23.310;2023-07-24T01:25:00;95254.81;;;24.79;57.75
5380;BME280;2713;42.680;23.310;2023-07-24T01:27:29;95252.31;;;24.42;58.66
5380;BME280;2713;42.680;23.310;2023-07-24T01:29:55;95248.88;;;24.46;58.52
5380;BME280;2713;42.680;23.310;2023-07-24T01:32:22;95249.63;;;24.37;58.82
5380;BME280;2713;42.680;23.310;2023-07-24T01:34:50;95243.78;;;24.40;58.80
5380;BME280;2713;42.680;23.310;2023-07-24T01:37:18;95245.06;;;24.22;59.35
5380;BME280;2713;42.680;23.310;2023-07-24T01:39:47;95246.56;;;24.08;59.68
5380;BME280;2713;42.680;23.310;2023-07-24T01:42:14;95255.72;;;24.27;58.83
5380;BME280;2713;42.680;23.310;2023-07-24T01:44:42;95282.94;;;24.54;58.19
5380;BME280;2713;42.680;23.310;2023-07-24T01:47:09;95280.81;;;24.66;58.00
5380;BME280;2713;42.680;23.310;2023-07-24T01:49:37;95276.88;;;24.69;57.85
5380;BME280;2713;42.680;23.310;2023-07-24T01:52:04;95274.69;;;24.51;57.48
5380;BME280;2713;42.680;23.310;2023-07-24T01:54:31;95259.53;;;24.51;57.63
5380;BME280;2713;42.680;23.310;2023-07-24T01:56:58;95264.53;;;24.43;57.97
5380;BME280;2713;42.680;23.310;2023-07-24T01:59:24;95275.44;;;24.46;57.72
5380;BME280;2713;42.680;23.310;2023-07-24T02:01:53;95263.44;;;24.39;57.48
5380;BME280;2713;42.680;23.310;2023-07-24T02:04:19;95268.75;;;24.39;57.46
5380;BME280;2713;42.680;23.310;2023-07-24T02:06:48;95259.53;;;24.51;56.78
5380;BME280;2713;42.680;23.310;2023-07-24T02:09:15;95266.44;;;24.57;56.82
5380;BME280;2713;42.680;23.310;2023-07-24T02:11:42;95258.41;;;24.37;57.25
5380;BME280;2713;42.680;23.310;2023-07-24T02:14:09;95251.03;;;24.54;56.38
5380;BME280;2713;42.680;23.310;2023-07-24T02:16:36;95263.00;;;24.57;56.37
5380;BME280;2713;42.680;23.310;2023-07-24T02:19:05;95263.75;;;24.52;56.73
5380;BME280;2713;42.680;23.310;2023-07-24T02:21:32;95259.19;;;24.28;57.02
5380;BME280;2713;42.680;23.310;2023-07-24T02:23:59;95263.44;;;24.39;57.31
5380;BME280;2713;42.680;23.310;2023-07-24T02:26:25;95252.06;;;24.43;57.08
5380;BME280;2713;42.680;23.310;2023-07-24T02:28:54;95257.69;;;24.52;56.56
5380;BME280;2713;42.680;23.310;2023-07-24T02:31:20;95256.91;;;24.61;56.44
5380;BME280;2713;42.680;23.310;2023-07-24T02:33:48;95254.25;;;24.61;56.26
5380;BME280;2713;42.680;23.310;2023-07-24T02:36:16;95258.41;;;24.42;57.18
5380;BME280;2713;42.680;23.310;2023-07-24T02:38:43;95254.66;;;24.33;57.49
5380;BME280;2713;42.680;23.310;2023-07-24T02:41:10;95257.09;;;24.40;57.04
5380;BME280;2713;42.680;23.310;2023-07-24T02:43:36;95260.31;;;24.42;57.09
5380;BME280;2713;42.680;23.310;2023-07-24T02:46:03;95262.44;;;24.45;57.02
5380;BME280;2713;42.680;23.310;2023-07-24T02:48:30;95255.53;;;24.54;56.58
5380;BME280;2713;42.680;23.310;2023-07-24T02:50:57;95256.53;;;24.28;57.61
5380;BME280;2713;42.680;23.310;2023-07-24T02:53:25;95259.34;;;24.11;57.82
5380;BME280;2713;42.680;23.310;2023-07-24T02:55:52;95256.28;;;23.87;58.32
5380;BME280;2713;42.680;23.310;2023-07-24T02:58:18;95254.78;;;23.59;59.18
5380;BME280;2713;42.680;23.310;2023-07-24T03:00:45;95257.00;;;23.78;58.34
5380;BME280;2713;42.680;23.310;2023-07-24T03:03:12;95258.22;;;24.02;57.07
5380;BME280;2713;42.680;23.310;2023-07-24T03:05:39;95254.75;;;24.01;57.34
5380;BME280;2713;42.680;23.310;2023-07-24T03:08:06;95253.38;;;23.89;57.66
5380;BME280;2713;42.680;23.310;2023-07-24T03:10:34;95244.94;;;23.97;57.68
5380;BME280;2713;42.680;23.310;2023-07-24T03:13:00;95249.22;;;24.08;57.21
5380;BME280;2713;42.680;23.310;2023-07-24T03:15:27;95254.34;;;24.19;57.31
5380;BME280;2713;42.680;23.310;2023-07-24T03:17:54;95252.25;;;24.27;56.81
5380;BME280;2713;42.680;23.310;2023-07-24T03:20:21;95250.69;;;24.31;56.83
5380;BME280;2713;42.680;23.310;2023-07-24T03:22:48;95245.06;;;24.22;57.17
5380;BME280;2713;42.680;23.310;2023-07-24T03:25:15;95248.47;;;24.12;57.47
5380;BME280;2713;42.680;23.310;2023-07-24T03:27:43;95253.47;;;24.04;57.77
5380;BME280;2713;42.680;23.310;2023-07-24T03:30:10;95261.00;;;24.17;57.27
5380;BME280;2713;42.680;23.310;2023-07-24T03:32:37;95267.44;;;24.31;57.11
5380;BME280;2713;42.680;23.310;2023-07-24T03:35:05;95258.41;;;24.37;56.99
5380;BME280;2713;42.680;23.310;2023-07-24T03:37:32;95257.59;;;24.37;57.27
5380;BME280;2713;42.680;23.310;2023-07-24T03:39:59;95236.56;;;24.20;57.34
5380;BME280;2713;42.680;23.310;2023-07-24T03:42:30;95256.69;;;24.11;57.83
5380;BME280;2713;42.680;23.310;2023-07-24T03:44:59;95266.22;;;24.12;57.61
5380;BME280;2713;42.680;23.310;2023-07-24T03:47:26;95256.06;;;23.94;58.28
5380;BME280;2713;42.680;23.310;2023-07-24T03:49:53;95258.41;;;23.85;58.67
5380;BME280;2713;42.680;23.310;2023-07-24T03:52:20;95262.44;;;23.93;58.32
5380;BME280;2713;42.680;23.310;2023-07-24T03:54:47;95264.03;;;23.94;58.31
5380;BME280;2713;42.680;23.310;2023-07-24T03:57:14;95262.31;;;23.78;59.07
5380;BME280;2713;42.680;23.310;2023-07-24T03:59:40;95266.16;;;23.97;58.31
5380;BME280;2713;42.680;23.310;2023-07-24T04:02:09;95264.84;;;23.99;58.42
5380;BME280;2713;42.680;23.310;2023-07-24T04:04:36;95262.38;;;23.83;58.85
5380;BME280;2713;42.680;23.310;2023-07-24T04:07:03;95268.53;;;23.51;59.52
5380;BME280;2713;42.680;23.310;2023-07-24T04:09:30;95274.22;;;23.70;59.07
5380;BME280;2713;42.680;23.310;2023-07-24T04:11:57;95270.34;;;23.83;58.81
5380;BME280;2713;42.680;23.310;2023-07-24T04:14:24;95276.16;;;23.80;58.71
5380;BME280;2713;42.680;23.310;2023-07-24T04:16:51;95259.66;;;23.72;58.76
5380;BME280;2713;42.680;23.310;2023-07-24T04:19:19;95279.03;;;23.73;58.36
5380;BME280;2713;42.680;23.310;2023-07-24T04:21:46;95275.66;;;23.46;59.02
5380;BME280;2713;42.680;23.310;2023-07-24T04:24:12;95280.56;;;23.32;59.12
5380;BME280;2713;42.680;23.310;2023-07-24T04:26:39;95279.28;;;23.71;58.14
5380;BME280;2713;42.680;23.310;2023-07-24T04:29:06;95285.22;;;23.89;57.49
5380;BME280;2713;42.680;23.310;2023-07-24T04:31:33;95282.41;;;24.05;56.80
5380;BME280;2713;42.680;23.310;2023-07-24T04:33:59;95275.75;;;24.03;56.69
5380;BME280;2713;42.680;23.310;2023-07-24T04:36:27;95277.44;;;24.14;56.12
5380;BME280;2713;42.680;23.310;2023-07-24T04:38:54;95268.72;;;23.77;56.10
5380;BME280;2713;42.680;23.310;2023-07-24T04:41:21;95282.03;;;23.87;54.75
5380;BME280;2713;42.680;23.310;2023-07-24T04:43:48;95275.28;;;24.11;54.29
5380;BME280;2713;42.680;23.310;2023-07-24T04:46:15;95284.63;;;24.18;53.89
5380;BME280;2713;42.680;23.310;2023-07-24T04:48:41;95284.16;;;24.32;53.20
5380;BME280;2713;42.680;23.310;2023-07-24T04:51:08;95286.06;;;24.46;52.91
5380;BME280;2713;42.680;23.310;2023-07-24T04:53:36;95277.66;;;24.74;52.15
5380;BME280;2713;42.680;23.310;2023-07-24T04:56:03;95285.75;;;25.00;51.20
5380;BME280;2713;42.680;23.310;2023-07-24T04:58:30;95283.63;;;25.32;50.13
5380;BME280;2713;42.680;23.310;2023-07-24T05:00:57;95283.66;;;25.62;49.38
5380;BME280;2713;42.680;23.310;2023-07-24T05:03:23;95283.88;;;25.96;48.78
5380;BME280;2713;42.680;23.310;2023-07-24T05:05:54;95284.38;;;26.23;48.40
5380;BME280;2713;42.680;23.310;2023-07-24T05:08:21;95283.31;;;26.30;48.59
5380;BME280;2713;42.680;23.310;2023-07-24T05:10:53;95286.53;;;26.16;48.98
5380;BME280;2713;42.680;23.310;2023-07-24T05:13:20;95287.25;;;26.42;48.39
5380;BME280;2713;42.680;23.310;2023-07-24T05:15:47;95290.88;;;26.61;48.28
5380;BME280;2713;42.680;23.310;2023-07-24T05:18:14;95280.28;;;26.51;48.71
5380;BME280;2713;42.680;23.310;2023-07-24T05:20:44;95282.44;;;27.03;47.68
5380;BME280;2713;42.680;23.310;2023-07-24T05:23:11;95281.13;;;26.96;47.53
5380;BME280;2713;42.680;23.310;2023-07-24T05:25:38;95281.63;;;27.08;47.41
5380;BME280;2713;42.680;23.310;2023-07-24T05:28:06;95278.31;;;27.21;47.23
5380;BME280;2713;42.680;23.310;2023-07-24T05:30:33;95271.03;;;27.32;46.89
5380;BME280;2713;42.680;23.310;2023-07-24T05:33:00;95262.22;;;27.31;47.30
5380;BME280;2713;42.680;23.310;2023-07-24T05:35:27;95276.56;;;27.40;46.97
5380;BME280;2713;42.680;23.310;2023-07-24T05:37:54;95275.41;;;27.56;46.91
5380;BME280;2713;42.680;23.310;2023-07-24T05:40:20;95277.84;;;27.82;46.46
5380;BME280;2713;42.680;23.310;2023-07-24T05:42:47;95267.47;;;27.75;46.83
5380;BME280;2713;42.680;23.310;2023-07-24T05:45:15;95267.31;;;28.19;45.43
5380;BME280;2713;42.680;23.310;2023-07-24T05:47:42;95264.84;;;28.28;45.11
5380;BME280;2713;42.680;23.310;2023-07-24T05:50:09;95265.72;;;28.65;44.28
5380;BME280;2713;42.680;23.310;2023-07-24T05:52:38;95265.25;;;28.58;44.52
5380;BME280;2713;42.680;23.310;2023-07-24T05:55:06;95255.19;;;28.93;43.66
5380;BME280;2713;42.680;23.310;2023-07-24T05:57:33;95258.97;;;29.10;42.78
5380;BME280;2713;42.680;23.310;2023-07-24T06:00:00;95258.38;;;28.95;42.45
5380;BME280;2713;42.680;23.310;2023-07-24T06:02:28;95254.66;;;28.91;42.79
5380;BME280;2713;42.680;23.310;2023-07-24T06:04:55;95248.97;;;29.35;42.02
5380;BME280;2713;42.680;23.310;2023-07-24T06:07:22;95246.78;;;29.18;42.03
5380;BME280;2713;42.680;23.310;2023-07-24T06:09:49;95246.00;;;29.36;41.77
5380;BME280;2713;42.680;23.310;2023-07-24T06:12:16;95246.44;;;29.57;41.29
5380;BME280;2713;42.680;23.310;2023-07-24T06:14:43;95251.91;;;29.52;41.10
5380;BME280;2713;42.680;23.310;2023-07-24T06:17:10;95247.78;;;29.73;41.00
5380;BME280;2713;42.680;23.310;2023-07-24T06:19:38;95246.19;;;29.72;41.17
5380;BME280;2713;42.680;23.310;2023-07-24T06:22:05;95252.84;;;30.07;41.11
5380;BME280;2713;42.680;23.310;2023-07-24T06:24:32;95246.88;;;30.10;40.03
5380;BME280;2713;42.680;23.310;2023-07-24T06:26:59;95243.81;;;30.30;39.88
5380;BME280;2713;42.680;23.310;2023-07-24T06:29:25;95239.94;;;30.50;40.13
5380;BME280;2713;42.680;23.310;2023-07-24T06:31:52;95244.00;;;30.75;39.19
5380;BME280;2713;42.680;23.310;2023-07-24T06:34:19;95240.94;;;30.90;39.75
5380;BME280;2713;42.680;23.310;2023-07-24T06:36:47;95245.16;;;30.82;40.51
5380;BME280;2713;42.680;23.310;2023-07-24T06:39:14;95235.88;;;31.02;39.76
5380;BME280;2713;42.680;23.310;2023-07-24T06:41:41;95241.25;;;31.02;39.94
5380;BME280;2713;42.680;23.310;2023-07-24T06:44:07;95238.09;;;31.22;39.47
5380;BME280;2713;42.680;23.310;2023-07-24T06:46:34;95237.69;;;30.79;39.63
5380;BME280;2713;42.680;23.310;2023-07-24T06:49:01;95240.66;;;31.05;39.55
5380;BME280;2713;42.680;23.310;2023-07-24T06:51:28;95231.88;;;31.35;38.80
5380;BME280;2713;42.680;23.310;2023-07-24T06:53:56;95244.19;;;31.14;39.18
5380;BME280;2713;42.680;23.310;2023-07-24T06:56:23;95238.16;;;31.31;38.72
5380;BME280;2713;42.680;23.310;2023-07-24T06:58:49;95233.56;;;31.76;38.53
5380;BME280;2713;42.680;23.310;2023-07-24T07:01:16;95237.78;;;31.99;37.48
5380;BME280;2713;42.680;23.310;2023-07-24T07:03:43;95240.47;;;31.24;39.14
5380;BME280;2713;42.680;23.310;2023-07-24T07:06:10;95241.09;;;31.21;39.39
5380;BME280;2713;42.680;23.310;2023-07-24T07:08:37;95243.50;;;31.66;38.59
5380;BME280;2713;42.680;23.310;2023-07-24T07:11:05;95247.41;;;31.60;37.71
5380;BME280;2713;42.680;23.310;2023-07-24T07:13:32;95244.69;;;31.83;38.03
5380;BME280;2713;42.680;23.310;2023-07-24T07:15:59;95249.47;;;32.16;37.89
5380;BME280;2713;42.680;23.310;2023-07-24T07:18:25;95236.25;;;31.76;37.62
5380;BME280;2713;42.680;23.310;2023-07-24T07:20:53;95229.06;;;31.85;38.04
5380;BME280;2713;42.680;23.310;2023-07-24T07:23:20;95233.56;;;31.76;38.44
5380;BME280;2713;42.680;23.310;2023-07-24T07:25:47;95228.31;;;31.48;38.69
5380;BME280;2713;42.680;23.310;2023-07-24T07:28:16;95227.47;;;31.84;37.84
5380;BME280;2713;42.680;23.310;2023-07-24T07:30:43;95219.13;;;32.25;36.94
5380;BME280;2713;42.680;23.310;2023-07-24T07:33:10;95228.28;;;31.93;37.86
5380;BME280;2713;42.680;23.310;2023-07-24T07:35:37;95215.56;;;32.07;37.11
5380;BME280;2713;42.680;23.310;2023-07-24T07:38:03;95219.78;;;32.47;36.55
5380;BME280;2713;42.680;23.310;2023-07-24T07:40:30;95219.81;;;32.56;36.91
5380;BME280;2713;42.680;23.310;2023-07-24T07:42:57;95220.19;;;32.72;36.37
5380;BME280;2713;42.680;23.310;2023-07-24T07:45:25;95216.94;;;32.44;36.41
5380;BME280;2713;42.680;23.310;2023-07-24T07:47:52;95216.88;;;32.83;35.61
5380;BME280;2713;42.680;23.310;2023-07-24T07:50:19;95222.94;;;32.41;36.66
5380;BME280;2713;42.680;23.310;2023-07-24T07:52:49;95221.09;;;31.80;37.77
5380;BME280;2713;42.680;23.310;2023-07-24T07:55:16;95211.34;;;32.23;36.91
5380;BME280;2713;42.680;23.310;2023-07-24T07:57:43;95214.19;;;32.92;35.99
5380;BME280;2713;42.680;23.310;2023-07-24T08:00:10;95209.84;;;32.56;35.54
5380;BME280;2713;42.680;23.310;2023-07-24T08:02:39;95206.25;;;32.70;36.14
5380;BME280;2713;42.680;23.310;2023-07-24T08:05:07;95212.97;;;32.41;36.38
5380;BME280;2713;42.680;23.310;2023-07-24T08:07:33;95212.00;;;32.94;35.51
5380;BME280;2713;42.680;23.310;2023-07-24T08:10:00;95218.97;;;33.12;35.93
5380;BME280;2713;42.680;23.310;2023-07-24T08:12:27;95218.81;;;33.34;35.30
5380;BME280;2713;42.680;23.310;2023-07-24T08:14:55;95219.28;;;33.45;35.44
5380;BME280;2713;42.680;23.310;2023-07-24T08:17:22;95211.50;;;33.52;34.95
5380;BME280;2713;42.680;23.310;2023-07-24T08:19:50;95203.91;;;33.62;34.52
5380;BME280;2713;42.680;23.310;2023-07-24T08:22:17;95204.22;;;33.44;34.16
5380;BME280;2713;42.680;23.310;2023-07-24T08:24:45;95201.06;;;33.42;34.39
5380;BME280;2713;42.680;23.310;2023-07-24T08:27:12;95189.66;;;33.91;33.84
5380;BME280;2713;42.680;23.310;2023-07-24T08:29:39;95189.78;;;34.41;32.90
5380;BME280;2713;42.680;23.310;2023-07-24T08:32:06;95186.22;;;33.74;33.55
5380;BME280;2713;42.680;23.310;2023-07-24T08:34:33;95177.72;;;34.01;33.01
5380;BME280;2713;42.680;23.310;2023-07-24T08:37:01;95178.13;;;33.74;33.44
5380;BME280;2713;42.680;23.310;2023-07-24T08:39:28;95178.84;;;34.00;32.40
5380;BME280;2713;42.680;23.310;2023-07-24T08:41:55;95180.75;;;33.53;33.15
5380;BME280;2713;42.680;23.310;2023-07-24T08:44:23;95173.03;;;33.81;32.79
5380;BME280;2713;42.680;23.310;2023-07-24T08:46:51;95175.06;;;34.30;31.91
5380;BME280;2713;42.680;23.310;2023-07-24T08:49:18;95169.50;;;34.56;31.91
5380;BME280;2713;42.680;23.310;2023-07-24T08:51:46;95167.84;;;34.72;31.87
5380;BME280;2713;42.680;23.310;2023-07-24T08:54:15;95170.53;;;34.43;31.86
5380;BME280;2713;42.680;23.310;2023-07-24T08:56:42;95170.75;;;34.38;32.12
5380;BME280;2713;42.680;23.310;2023-07-24T08:59:12;95171.00;;;34.24;32.33
5380;BME280;2713;42.680;23.310;2023-07-24T09:01:39;95165.66;;;34.07;32.69
5380;BME280;2713;42.680;23.310;2023-07-24T09:04:06;95165.16;;;34.05;32.30
5380;BME280;2713;42.680;23.310;2023-07-24T09:06:33;95171.13;;;34.78;31.32
5380;BME280;2713;42.680;23.310;2023-07-24T09:09:00;95162.38;;;34.31;31.66
5380;BME280;2713;42.680;23.310;2023-07-24T09:11:28;95155.91;;;34.23;31.99
5380;BME280;2713;42.680;23.310;2023-07-24T09:13:55;95152.28;;;34.19;32.00
5380;BME280;2713;42.680;23.310;2023-07-24T09:16:22;95152.13;;;33.60;32.31
5380;BME280;2713;42.680;23.310;2023-07-24T09:18:50;95160.63;;;33.97;32.42
5380;BME280;2713;42.680;23.310;2023-07-24T09:21:27;95150.47;;;33.94;31.71
5380;BME280;2713;42.680;23.310;2023-07-24T09:23:54;95151.28;;;33.86;31.81
5380;BME280;2713;42.680;23.310;2023-07-24T09:26:21;95140.78;;;33.93;31.53
5380;BME280;2713;42.680;23.310;2023-07-24T09:28:53;95137.88;;;33.60;32.74
5380;BME280;2713;42.680;23.310;2023-07-24T09:31:20;95133.59;;;33.68;32.63
5380;BME280;2713;42.680;23.310;2023-07-24T09:33:47;95134.03;;;34.16;31.81
5380;BME280;2713;42.680;23.310;2023-07-24T09:36:14;95136.84;;;34.28;31.47
5380;BME280;2713;42.680;23.310;2023-07-24T09:38:41;95125.41;;;34.52;31.07
5380;BME280;2713;42.680;23.310;2023-07-24T09:41:08;95122.63;;;34.10;30.73
5380;BME280;2713;42.680;23.310;2023-07-24T09:43:34;95112.31;;;33.75;31.67
5380;BME280;2713;42.680;23.310;2023-07-24T09:46:04;95105.09;;;33.87;31.94
5380;BME280;2713;42.680;23.310;2023-07-24T09:48:32;95102.53;;;33.91;31.76
5380;BME280;2713;42.680;23.310;2023-07-24T09:51:00;95097.59;;;33.63;31.68
5380;BME280;2713;42.680;23.310;2023-07-24T09:53:32;95101.44;;;33.92;31.38
5380;BME280;2713;42.680;23.310;2023-07-24T09:56:02;95098.66;;;33.80;31.59
5380;BME280;2713;42.680;23.310;2023-07-24T09:58:29;95096.38;;;33.90;31.42
5380;BME280;2713;42.680;23.310;2023-07-24T10:00:56;95093.06;;;33.85;30.57
5380;BME280;2713;42.680;23.310;2023-07-24T10:03:25;95085.59;;;33.90;30.48
5380;BME280;2713;42.680;23.310;2023-07-24T10:05:53;95089.31;;;34.06;30.76
5380;BME280;2713;42.680;23.310;2023-07-24T10:08:21;95083.25;;;34.09;30.44
5380;BME280;2713;42.680;23.310;2023-07-24T10:10:48;95072.91;;;34.41;29.98
5380;BME280;2713;42.680;23.310;2023-07-24T10:13:17;95081.31;;;34.60;30.27
5380;BME280;2713;42.680;23.310;2023-07-24T10:15:45;95074.28;;;34.68;29.83
5380;BME280;2713;42.680;23.310;2023-07-24T10:18:15;95073.41;;;34.96;29.53
5380;BME280;2713;42.680;23.310;2023-07-24T10:20:43;95071.97;;;34.78;30.38
5380;BME280;2713;42.680;23.310;2023-07-24T10:23:15;95063.81;;;34.45;31.09
5380;BME280;2713;42.680;23.310;2023-07-24T10:25:45;95068.41;;;33.95;31.87
5380;BME280;2713;42.680;23.310;2023-07-24T10:28:12;95054.44;;;34.22;31.95
5380;BME280;2713;42.680;23.310;2023-07-24T10:30:42;95046.31;;;34.31;31.08
5380;BME280;2713;42.680;23.310;2023-07-24T10:33:10;95051.69;;;34.51;31.10
5380;BME280;2713;42.680;23.310;2023-07-24T10:35:38;95052.75;;;34.59;31.11
5380;BME280;2713;42.680;23.310;2023-07-24T10:38:07;95054.97;;;34.57;31.61
5380;BME280;2713;42.680;23.310;2023-07-24T10:40:34;95053.78;;;34.46;32.43
5380;BME280;2713;42.680;23.310;2023-07-24T10:43:04;95048.00;;;34.15;32.56
5380;BME280;2713;42.680;23.310;2023-07-24T10:45:39;95043.59;;;34.31;32.43
5380;BME280;2713;42.680;23.310;2023-07-24T10:48:06;95046.44;;;34.55;32.22
5380;BME280;2713;42.680;23.310;2023-07-24T10:50:41;95040.25;;;34.34;31.89
5380;BME280;2713;42.680;23.310;2023-07-24T10:53:10;95029.28;;;34.09;30.89
5380;BME280;2713;42.680;23.310;2023-07-24T10:55:37;95035.75;;;33.58;31.15
5380;BME280;2713;42.680;23.310;2023-07-24T10:58:05;95024.75;;;33.72;30.63
5380;BME280;2713;42.680;23.310;2023-07-24T11:00:32;95027.25;;;34.06;30.49
5380;BME280;2713;42.680;23.310;2023-07-24T11:02:59;95028.34;;;34.35;30.28
5380;BME280;2713;42.680;23.310;2023-07-24T11:05:26;95032.41;;;34.11;29.51
5380;BME280;2713;42.680;23.310;2023-07-24T11:07:54;95021.03;;;34.15;29.07
5380;BME280;2713;42.680;23.310;2023-07-24T11:10:23;95021.41;;;34.25;30.06
5380;BME280;2713;42.680;23.310;2023-07-24T11:12:49;95006.19;;;34.41;29.90
5380;BME280;2713;42.680;23.310;2023-07-24T11:15:23;95012.53;;;34.45;30.11
5380;BME280;2713;42.680;23.310;2023-07-24T11:17:51;95001.47;;;34.38;30.02
5380;BME280;2713;42.680;23.310;2023-07-24T11:20:18;95006.66;;;34.23;30.35
5380;BME280;2713;42.680;23.310;2023-07-24T11:22:44;95009.81;;;34.04;30.32
5380;BME280;2713;42.680;23.310;2023-07-24T11:25:11;95016.47;;;34.27;30.13
5380;BME280;2713;42.680;23.310;2023-07-24T11:27:40;94993.56;;;34.33;30.23
5380;BME280;2713;42.680;23.310;2023-07-24T11:30:10;94990.19;;;34.36;29.98
5380;BME280;2713;42.680;23.310;2023-07-24T11:32:38;94990.94;;;34.45;30.06
5380;BME280;2713;42.680;23.310;2023-07-24T11:35:06;94990.66;;;34.38;30.47
5380;BME280;2713;42.680;23.310;2023-07-24T11:37:34;94981.03;;;34.08;31.82
5380;BME280;2713;42.680;23.310;2023-07-24T11:40:02;94991.97;;;33.61;32.45
5380;BME280;2713;42.680;23.310;2023-07-24T11:42:30;94980.97;;;33.37;32.98
5380;BME280;2713;42.680;23.310;2023-07-24T11:45:00;94977.41;;;33.54;33.01
5380;BME280;2713;42.680;23.310;2023-07-24T11:47:27;94974.97;;;33.70;32.86
5380;BME280;2713;42.680;23.310;2023-07-24T11:49:59;94977.38;;;33.62;33.69
5380;BME280;2713;42.680;23.310;2023-07-24T11:52:36;94975.94;;;33.65;33.06
5380;BME280;2713;42.680;23.310;2023-07-24T11:55:04;94969.88;;;33.39;34.17
5380;BME280;2713;42.680;23.310;2023-07-24T11:57:30;94982.06;;;33.45;33.57
5380;BME280;2713;42.680;23.310;2023-07-24T11:59:59;94974.56;;;33.50;33.06
5380;BME280;2713;42.680;23.310;2023-07-24T12:02:26;94973.09;;;33.32;33.08
5380;BME280;2713;42.680;23.310;2023-07-24T12:04:55;94964.66;;;33.34;33.16
5380;BME280;2713;42.680;23.310;2023-07-24T12:07:32;94969.59;;;33.32;33.57
5380;BME280;2713;42.680;23.310;2023-07-24T12:10:00;94970.66;;;33.39;33.49
5380;BME280;2713;42.680;23.310;2023-07-24T12:12:40;94964.53;;;33.59;33.53
5380;BME280;2713;42.680;23.310;2023-07-24T12:15:09;94965.16;;;33.86;33.16
5380;BME280;2713;42.680;23.310;2023-07-24T12:17:36;94969.19;;;34.00;32.76
5380;BME280;2713;42.680;23.310;2023-07-24T12:20:04;94965.22;;;33.98;32.72
5380;BME280;2713;42.680;23.310;2023-07-24T12:22:33;94963.00;;;34.00;32.90
5380;BME280;2713;42.680;23.310;2023-07-24T12:25:00;94959.78;;;33.86;32.99
5380;BME280;2713;42.680;23.310;2023-07-24T12:27:27;94958.16;;;33.64;33.21
5380;BME280;2713;42.680;23.310;2023-07-24T12:29:54;94958.13;;;33.73;32.77
5380;BME280;2713;42.680;23.310;2023-07-24T12:32:21;94953.72;;;33.68;32.62
5380;BME280;2713;42.680;23.310;2023-07-24T12:34:50;94952.47;;;33.57;32.72
5380;BME280;2713;42.680;23.310;2023-07-24T12:37:18;94948.31;;;33.68;31.77
5380;BME280;2713;42.680;23.310;2023-07-24T12:39:46;94945.84;;;33.84;32.08
5380;BME280;2713;42.680;23.310;2023-07-24T12:42:13;94945.84;;;33.84;31.44
5380;BME280;2713;42.680;23.310;2023-07-24T12:44:41;94938.84;;;34.03;31.63
5380;BME280;2713;42.680;23.310;2023-07-24T12:47:08;94930.28;;;34.22;31.53
5380;BME280;2713;42.680;23.310;2023-07-24T12:49:36;94937.09;;;34.28;31.42
5380;BME280;2713;42.680;23.310;2023-07-24T12:52:04;94940.94;;;34.39;31.48
5380;BME280;2713;42.680;23.310;2023-07-24T12:54:31;94927.84;;;34.29;32.00
5380;BME280;2713;42.680;23.310;2023-07-24T12:56:58;94924.72;;;34.39;31.99
5380;BME280;2713;42.680;23.310;2023-07-24T12:59:25;94922.09;;;34.51;31.63
5380;BME280;2713;42.680;23.310;2023-07-24T13:01:51;94926.56;;;34.47;31.31
5380;BME280;2713;42.680;23.310;2023-07-24T13:04:19;94922.50;;;34.41;30.88
5380;BME280;2713;42.680;23.310;2023-07-24T13:06:47;94917.59;;;34.23;30.71
5380;BME280;2713;42.680;23.310;2023-07-24T13:09:13;94916.84;;;34.34;30.69
5380;BME280;2713;42.680;23.310;2023-07-24T13:11:40;94921.38;;;34.42;31.03